Time;durP1;ratioP1;P1;durP2;ratioP2;P2;SDS_P1;SDS_P2;PMS_P1;PMS_P2;Temp;Humidity;BMP_temperature;BMP_pressure;BME280_temperature;BME280_humidity;BME280_pressure;Samples;Min_cycle;Max_cycle;Signal;HPM_P1;HPM_P2
2022/04/15 00:02:06;;;;;;;8.27;6.57;;;;;;;10.69;63.00;100019.91;5112771;28;20690;-50
2022/04/15 00:04:34;;;;;;;9.17;6.30;;;;;;;10.63;62.89;100025.22;5112866;28;20220;-53
2022/04/15 00:07:02;;;;;;;10.20;6.70;;;;;;;10.64;62.92;100029.50;5112294;28;20199;-49
2022/04/15 00:09:30;;;;;;;7.77;5.97;;;;;;;10.53;63.26;100023.69;5112260;28;20191;-50
2022/04/15 00:12:00;;;;;;;6.20;5.60;;;;;;;10.46;63.72;100024.72;5112517;28;20314;-49
2022/04/15 00:14:27;;;;;;;6.63;6.03;;;;;;;10.47;64.57;100018.63;5112406;28;20195;-50
2022/04/15 00:16:54;;;;;;;8.93;5.90;;;;;;;10.46;64.53;100011.72;5112544;28;20587;-51
2022/04/15 00:19:23;;;;;;;8.50;5.87;;;;;;;10.39;63.88;100007.53;5112392;28;20203;-51
2022/04/15 00:21:50;;;;;;;6.83;5.57;;;;;;;10.32;64.13;100016.34;5112529;28;20191;-51
2022/04/15 00:24:18;;;;;;;7.67;6.33;;;;;;;10.35;65.07;100016.28;5111978;28;20194;-51
2022/04/15 00:26:45;;;;;;;8.30;6.17;;;;;;;10.31;65.11;100004.25;5112237;28;20709;-51
2022/04/15 00:29:12;;;;;;;7.53;6.60;;;;;;;10.17;65.87;100001.88;5112086;28;20195;-52
2022/04/15 00:31:39;;;;;;;7.57;6.73;;;;;;;10.17;67.21;100007.94;5112015;28;20225;-52
2022/04/15 00:34:06;;;;;;;9.27;6.83;;;;;;;10.19;66.43;99998.41;5111940;28;20194;-52
2022/04/15 00:36:33;;;;;;;10.73;7.20;;;;;;;10.18;67.17;99996.69;5111987;28;20198;-51
2022/04/15 00:39:00;;;;;;;10.67;7.33;;;;;;;10.26;67.13;99998.31;5112340;28;20278;-50
2022/04/15 00:41:28;;;;;;;10.20;7.03;;;;;;;10.42;66.38;99997.97;5112026;28;20194;-50
2022/04/15 00:43:55;;;;;;;11.37;7.57;;;;;;;10.47;65.73;99995.28;5112260;28;20217;-51
2022/04/15 00:46:22;;;;;;;7.27;6.37;;;;;;;10.43;64.83;99988.44;5111456;28;20201;-51
2022/04/15 00:48:49;;;;;;;14.07;7.90;;;;;;;10.35;63.74;99969.59;5111796;28;20205;-51
2022/04/15 00:51:16;;;;;;;11.23;8.43;;;;;;;10.55;63.69;99995.97;5111438;28;20228;-51
2022/04/15 00:53:46;;;;;;;15.97;8.67;;;;;;;10.55;63.14;99995.97;5111762;28;20230;-51
2022/04/15 00:56:14;;;;;;;13.73;8.83;;;;;;;10.52;62.59;99998.63;5111474;28;20205;-51
2022/04/15 00:58:42;;;;;;;12.47;9.47;;;;;;;10.56;62.55;99995.09;5111547;28;20194;-51
2022/04/15 01:01:10;;;;;;;11.90;9.53;;;;;;;10.45;63.34;99997.91;5111434;28;20747;-52
2022/04/15 01:03:37;;;;;;;12.27;9.77;;;;;;;10.34;64.05;99979.09;5111345;28;20221;-51
2022/04/15 01:06:07;;;;;;;12.10;9.93;;;;;;;10.45;63.69;99992.72;5111451;28;20195;-51
2022/04/15 01:08:40;;;;;;;13.90;9.63;;;;;;;10.36;64.26;99979.94;5111570;28;20191;-51
2022/04/15 01:11:09;;;;;;;11.97;9.93;;;;;;;10.33;64.73;99992.97;5111318;28;20737;-52
2022/04/15 01:13:38;;;;;;;18.57;10.57;;;;;;;10.31;64.79;100005.09;5111229;28;20191;-51
2022/04/15 01:16:08;;;;;;;15.53;10.40;;;;;;;10.25;64.87;99999.19;5111284;28;20201;-51
2022/04/15 01:18:35;;;;;;;13.67;10.50;;;;;;;10.26;65.15;99991.38;5111213;28;20212;-51
2022/04/15 01:21:03;;;;;;;13.73;10.47;;;;;;;10.30;64.12;99982.63;5111157;28;20203;-51
2022/04/15 01:23:32;;;;;;;15.73;10.50;;;;;;;10.37;64.59;99983.38;5111180;28;20216;-49
2022/04/15 01:25:59;;;;;;;11.97;8.97;;;;;;;10.27;65.47;99981.88;5111452;28;20699;-50
2022/04/15 01:28:26;;;;;;;12.77;9.17;;;;;;;10.29;64.84;99982.66;5111049;28;20194;-50
2022/04/15 01:30:53;;;;;;;13.93;9.53;;;;;;;10.18;65.47;99983.72;5110785;28;20226;-51
2022/04/15 01:33:20;;;;;;;9.20;8.40;;;;;;;10.10;65.91;99980.41;5111026;28;20612;-52
2022/04/15 01:35:47;;;;;;;13.60;9.30;;;;;;;10.10;65.81;99982.16;5110981;28;20205;-52
2022/04/15 01:38:17;;;;;;;10.57;8.87;;;;;;;10.03;64.75;99991.78;5110812;28;20197;-51
2022/04/15 01:40:46;;;;;;;11.10;9.47;;;;;;;10.04;65.67;99987.47;5110871;28;20198;-51
2022/04/15 01:43:13;;;;;;;10.60;9.50;;;;;;;10.10;64.95;99988.19;5110586;28;20193;-52
2022/04/15 01:45:40;;;;;;;17.27;9.03;;;;;;;10.15;64.38;99991.56;5110640;28;20191;-52
2022/04/15 01:48:08;;;;;;;10.77;8.93;;;;;;;10.22;63.62;99986.28;5110829;28;20293;-52
2022/04/15 01:50:35;;;;;;;12.57;8.63;;;;;;;10.17;63.08;99982.00;5110762;28;20606;-52
2022/04/15 01:53:02;;;;;;;12.63;9.03;;;;;;;10.18;62.91;99982.88;5110850;28;20209;-51
2022/04/15 01:55:29;;;;;;;10.40;9.30;;;;;;;10.22;62.99;99986.28;5110582;28;20201;-50
2022/04/15 01:57:58;;;;;;;12.50;8.77;;;;;;;10.21;63.44;99982.81;5110016;28;20736;-51
2022/04/15 02:00:25;;;;;;;14.33;9.43;;;;;;;10.21;62.34;99971.59;5110308;28;20198;-52
2022/04/15 02:02:52;;;;;;;14.13;9.70;;;;;;;10.12;63.53;99978.66;5110720;28;20753;-51
2022/04/15 02:05:19;;;;;;;13.07;9.67;;;;;;;10.04;63.88;99977.94;5110559;28;20588;-51
2022/04/15 02:07:46;;;;;;;14.33;10.27;;;;;;;9.98;63.58;99969.41;5110589;28;20662;-51
2022/04/15 02:10:13;;;;;;;15.83;10.27;;;;;;;10.04;64.29;99966.72;5110321;28;20202;-50
2022/04/15 02:12:40;;;;;;;12.00;9.33;;;;;;;9.88;63.64;99955.78;5110299;28;20214;-51
2022/04/15 02:15:09;;;;;;;11.23;9.40;;;;;;;9.82;64.84;99958.47;5110432;28;20194;-51
2022/04/15 02:17:36;;;;;;;13.17;9.43;;;;;;;9.83;63.60;99965.38;5110506;28;20586;-51
2022/04/15 02:20:04;;;;;;;15.63;9.67;;;;;;;9.76;64.30;99956.00;5110542;28;20195;-51
2022/04/15 02:22:31;;;;;;;13.87;9.13;;;;;;;9.78;63.68;99957.69;5110456;28;20197;-50
2022/04/15 02:24:58;;;;;;;13.50;9.83;;;;;;;9.96;63.42;99959.06;5110185;28;20698;-51
2022/04/15 02:27:24;;;;;;;14.23;9.17;;;;;;;9.93;63.87;99956.53;5110074;28;20230;-50
2022/04/15 02:29:51;;;;;;;12.40;9.37;;;;;;;9.89;63.92;99954.91;5110338;28;20206;-50
2022/04/15 02:32:20;;;;;;;10.50;9.20;;;;;;;9.90;63.26;99963.53;5110077;28;20313;-52
2022/04/15 02:34:47;;;;;;;9.87;8.87;;;;;;;9.84;63.74;99972.25;5110360;28;20248;-52
2022/04/15 02:37:14;;;;;;;12.87;9.40;;;;;;;9.71;63.53;99965.59;5109980;28;20195;-51
2022/04/15 02:39:41;;;;;;;12.27;9.03;;;;;;;9.64;63.80;99962.25;5109988;28;20588;-51
2022/04/15 02:42:08;;;;;;;12.90;8.97;;;;;;;9.65;64.24;99955.34;5109951;28;20190;-49
2022/04/15 02:44:38;;;;;;;11.93;8.33;;;;;;;9.56;64.56;99955.50;5110054;28;20216;-51
2022/04/15 02:47:05;;;;;;;9.43;7.80;;;;;;;9.59;63.58;99956.31;5109713;28;20195;-51
2022/04/15 02:49:34;;;;;;;8.83;7.63;;;;;;;9.52;64.23;99953.84;5110047;28;20210;-50
2022/04/15 02:52:04;;;;;;;9.60;8.60;;;;;;;9.43;64.06;99952.28;5110046;28;20669;-50
2022/04/15 02:54:31;;;;;;;10.03;8.07;;;;;;;9.48;64.90;99954.81;5109991;28;20234;-51
2022/04/15 02:56:57;;;;;;;9.90;7.60;;;;;;;9.53;64.29;99958.16;5110049;28;20191;-51
2022/04/15 02:59:24;;;;;;;11.97;7.30;;;;;;;9.47;63.79;99956.53;5109902;28;20195;-52
2022/04/15 03:01:51;;;;;;;8.37;6.80;;;;;;;9.40;64.00;99957.50;5110042;28;20190;-51
2022/04/15 03:04:18;;;;;;;8.37;7.57;;;;;;;9.45;63.96;99951.38;5109731;28;20190;-51
2022/04/15 03:06:46;;;;;;;9.53;7.20;;;;;;;9.48;63.47;99947.84;5109770;28;20680;-52
2022/04/15 03:09:13;;;;;;;8.27;7.30;;;;;;;9.34;64.89;99945.53;5105726;28;20235;-51
2022/04/15 03:11:40;;;;;;;8.27;7.37;;;;;;;9.25;64.94;99945.69;5092305;28;20620;-51
2022/04/15 03:14:08;;;;;;;13.53;8.00;;;;;;;9.26;65.64;99947.38;5092861;28;20223;-50
2022/04/15 03:16:35;;;;;;;9.10;7.50;;;;;;;9.21;65.78;99951.78;5092265;28;20703;-51
2022/04/15 03:19:02;;;;;;;11.57;6.97;;;;;;;9.16;66.31;99950.13;5092593;28;20223;-51
2022/04/15 03:21:29;;;;;;;8.23;7.40;;;;;;;9.10;66.23;99951.09;5098379;27;20213;-50
2022/04/15 03:23:58;;;;;;;8.03;7.20;;;;;;;8.95;67.31;99952.19;5120510;27;20221;-52
2022/04/15 03:26:25;;;;;;;12.03;8.30;;;;;;;8.86;68.11;99954.06;5119696;27;20313;-50
2022/04/15 03:28:52;;;;;;;7.93;6.93;;;;;;;8.76;68.14;99955.06;5122597;27;20642;-51
2022/04/15 03:31:18;;;;;;;9.77;7.70;;;;;;;8.86;68.33;99965.28;5120554;27;20604;-52
2022/04/15 03:33:46;;;;;;;9.17;7.50;;;;;;;8.81;68.05;99974.81;5121940;27;20631;-50
2022/04/15 03:36:13;;;;;;;9.40;7.27;;;;;;;8.77;68.79;99969.72;5120305;27;20222;-51
2022/04/15 03:38:41;;;;;;;11.53;7.80;;;;;;;8.75;68.67;99980.09;5120003;27;21390;-50
2022/04/15 03:41:09;;;;;;;8.47;7.67;;;;;;;8.69;69.40;99978.44;5119140;27;20225;-51
2022/04/15 03:43:36;;;;;;;11.83;8.00;;;;;;;8.71;68.87;99973.25;5115695;27;20217;-52
2022/04/15 03:46:04;;;;;;;9.30;7.90;;;;;;;8.72;69.42;99977.53;5129548;27;20245;-51
2022/04/15 03:48:31;;;;;;;8.27;7.47;;;;;;;8.65;70.25;99975.94;5124317;27;20613;-51
2022/04/15 03:50:58;;;;;;;11.47;7.57;;;;;;;8.58;70.89;99972.56;5120458;27;20244;-51
2022/04/15 03:53:25;;;;;;;10.50;7.97;;;;;;;8.59;70.67;99968.22;5119515;27;20224;-52
2022/04/15 03:55:52;;;;;;;14.43;8.93;;;;;;;8.70;70.92;99972.38;5120558;27;20302;-50
2022/04/15 03:58:21;;;;;;;12.30;8.60;;;;;;;8.79;70.39;99975.75;5120152;27;20709;-51
2022/04/15 04:00:48;;;;;;;10.63;8.40;;;;;;;8.96;69.96;99973.75;5119618;27;20225;-51
2022/04/15 04:03:15;;;;;;;13.67;9.17;;;;;;;9.13;68.84;99979.53;5121153;27;20228;-50
2022/04/15 04:05:42;;;;;;;10.93;8.83;;;;;;;9.33;68.27;99968.84;5122607;27;20190;-51
2022/04/15 04:08:09;;;;;;;9.87;8.77;;;;;;;9.39;67.63;99969.59;5121131;27;20551;-53
2022/04/15 04:10:36;;;;;;;14.33;8.63;;;;;;;9.43;66.92;99978.19;5122972;27;20322;-50
2022/04/15 04:13:04;;;;;;;18.73;13.93;;;;;;;9.44;65.83;99978.16;5119763;27;20210;-54
2022/04/15 04:15:33;;;;;;;10.93;8.47;;;;;;;9.45;66.16;99974.69;5112160;27;20205;-49
2022/04/15 04:18:00;;;;;;;14.07;8.50;;;;;;;9.54;65.33;99983.19;5125708;27;20654;-48
2022/04/15 04:20:28;;;;;;;12.77;9.43;;;;;;;9.57;66.45;99985.72;5111066;28;20201;-48
2022/04/15 04:22:55;;;;;;;18.40;10.23;;;;;;;9.79;65.29;99979.28;5115384;27;20194;-49
2022/04/15 04:25:22;;;;;;;13.50;9.27;;;;;;;10.50;62.95;99971.84;5128897;27;20197;-47
2022/04/15 04:27:49;;;;;;;12.17;9.63;;;;;;;11.47;59.41;99979.97;5131945;27;20236;-49
2022/04/15 04:30:16;;;;;;;14.00;9.70;;;;;;;12.36;54.99;99989.75;5132512;27;20198;-49
2022/04/15 04:32:50;;;;;;;13.17;9.33;;;;;;;13.27;52.22;99972.25;5132333;27;20221;-51
2022/04/15 04:35:18;;;;;;;24.40;10.27;;;;;;;14.68;49.11;99995.13;5131507;27;20247;-51
2022/04/15 04:37:46;;;;;;;13.40;9.20;;;;;;;15.78;45.82;100000.28;5132472;27;20263;-52
2022/04/15 04:40:14;;;;;;;14.03;10.07;;;;;;;16.89;43.51;99999.72;5132206;27;20190;-52
2022/04/15 04:42:41;;;;;;;13.37;9.57;;;;;;;17.75;41.72;100002.50;5132158;27;20194;-53
2022/04/15 04:45:10;;;;;;;19.83;9.87;;;;;;;17.79;40.60;100011.94;5132361;27;20194;-52
2022/04/15 04:47:39;;;;;;;16.07;8.33;;;;;;;18.49;39.65;100017.03;5132642;27;20304;-53
2022/04/15 04:50:10;;;;;;;12.07;9.17;;;;;;;19.39;37.35;100017.31;5132294;27;20204;-51
2022/04/15 04:52:37;;;;;;;11.43;8.30;;;;;;;19.91;36.10;100014.31;5132317;27;20220;-52
2022/04/15 04:55:05;;;;;;;10.10;8.23;;;;;;;20.96;34.30;100006.06;5132183;27;20208;-53
2022/04/15 04:57:32;;;;;;;18.75;8.90;;;;;;;22.09;32.71;100001.28;5132317;27;20704;-53
2022/04/15 04:59:59;;;;;;;12.82;9.55;;;;;;;22.70;31.31;100012.84;5132123;27;20603;-53
2022/04/15 05:02:26;;;;;;;14.13;8.93;;;;;;;23.35;30.18;100009.94;5131892;27;20193;-51
2022/04/15 05:04:53;;;;;;;11.20;8.93;;;;;;;23.55;29.97;100001.38;5132057;27;20190;-49
2022/04/15 05:07:21;;;;;;;20.38;9.40;;;;;;;23.91;29.08;100002.22;5131639;27;20198;-51
2022/04/15 05:09:48;;;;;;;17.13;9.20;;;;;;;24.25;28.74;100006.66;5132112;27;20212;-53
2022/04/15 05:12:15;;;;;;;9.30;7.90;;;;;;;24.35;28.16;100012.09;5131526;27;20221;-53
2022/04/15 05:14:42;;;;;;;10.35;8.63;;;;;;;24.44;28.25;100012.22;5131941;27;20198;-53
2022/04/15 05:17:09;;;;;;;10.35;7.88;;;;;;;25.04;27.48;99999.53;5131601;27;20198;-53
2022/04/15 05:19:36;;;;;;;12.30;8.43;;;;;;;25.20;27.36;99999.94;5131720;27;20284;-52
2022/04/15 05:22:03;;;;;;;10.15;7.95;;;;;;;24.68;27.63;100003.28;5131532;27;20198;-50
2022/04/15 05:24:32;;;;;;;15.52;7.63;;;;;;;24.04;28.70;100013.59;5131527;27;20189;-53
2022/04/15 05:26:59;;;;;;;11.00;8.27;;;;;;;24.16;28.82;100007.31;5131357;27;20230;-53
2022/04/15 05:29:25;;;;;;;11.75;7.47;;;;;;;24.56;27.93;100011.25;5131396;27;20197;-52
2022/04/15 05:31:53;;;;;;;11.10;7.88;;;;;;;24.42;27.99;100003.50;5131449;27;20590;-51
2022/04/15 05:34:19;;;;;;;15.50;8.15;;;;;;;23.53;28.90;100017.41;5130384;27;20661;-51
2022/04/15 05:36:46;;;;;;;8.88;7.57;;;;;;;22.87;29.80;99991.38;5131300;27;20193;-51
2022/04/15 05:39:13;;;;;;;7.45;6.57;;;;;;;22.50;30.38;100013.41;5131253;27;20192;-53
2022/04/15 05:41:42;;;;;;;6.45;5.82;;;;;;;22.45;30.42;100009.31;5131444;27;20198;-50
2022/04/15 05:44:12;;;;;;;9.95;6.50;;;;;;;22.49;30.53;100014.38;5131205;27;20198;-50
2022/04/15 05:46:42;;;;;;;10.82;7.07;;;;;;;22.53;30.14;100007.91;5131526;27;20650;-53
2022/04/15 05:49:13;;;;;;;13.77;6.55;;;;;;;22.25;30.66;100007.19;5130899;27;20198;-52
2022/04/15 05:51:41;;;;;;;8.68;6.45;;;;;;;22.17;30.88;100006.88;5131397;27;20658;-53
2022/04/15 05:54:08;;;;;;;7.90;6.55;;;;;;;22.62;30.38;100004.63;5131150;27;20723;-53
2022/04/15 05:56:35;;;;;;;8.68;6.03;;;;;;;23.56;29.23;100003.06;5131136;27;20197;-53
2022/04/15 05:59:03;;;;;;;9.00;5.97;;;;;;;24.73;27.79;100001.94;5131014;27;20198;-53
2022/04/15 06:01:31;;;;;;;7.95;6.53;;;;;;;25.10;27.28;100004.31;5130967;27;20190;-51
2022/04/15 06:03:57;;;;;;;9.43;7.20;;;;;;;25.07;27.39;99999.25;5130975;27;20193;-52
2022/04/15 06:06:24;;;;;;;16.80;8.93;;;;;;;24.75;27.57;99996.50;5131013;27;20730;-50
2022/04/15 06:08:51;;;;;;;21.98;9.05;;;;;;;23.93;28.39;100001.13;5111488;27;20230;-50
2022/04/15 06:11:18;;;;;;;12.70;6.65;;;;;;;23.18;29.41;100004.06;5110547;28;20698;-51
2022/04/15 06:13:47;;;;;;;10.25;6.70;;;;;;;22.88;30.00;99997.50;5110675;28;20659;-53
2022/04/15 06:16:17;;;;;;;18.92;8.32;;;;;;;22.74;30.38;99993.16;5110503;28;20228;-53
2022/04/15 06:18:44;;;;;;;7.28;6.60;;;;;;;22.63;30.54;100006.31;5110646;28;20199;-54
2022/04/15 06:21:11;;;;;;;16.08;7.43;;;;;;;23.00;30.31;100002.75;5110144;28;20204;-54
2022/04/15 06:23:39;;;;;;;18.35;6.95;;;;;;;23.65;29.33;99996.22;5110846;28;20273;-53
2022/04/15 06:26:06;;;;;;;10.60;8.30;;;;;;;24.42;28.45;100002.66;5110946;28;20242;-53
2022/04/15 06:28:33;;;;;;;9.02;8.13;;;;;;;25.45;26.94;99999.63;5110870;28;20202;-53
2022/04/15 06:31:00;;;;;;;10.70;6.78;;;;;;;26.01;26.30;99999.38;5110733;28;20281;-52
2022/04/15 06:33:29;;;;;;;15.70;8.23;;;;;;;26.14;26.16;99996.50;5110241;28;20219;-52
2022/04/15 06:35:55;;;;;;;10.95;6.65;;;;;;;26.65;25.50;100005.31;5109856;28;20201;-53
2022/04/15 06:38:22;;;;;;;11.20;7.40;;;;;;;27.40;24.69;100004.81;5108107;28;20198;-53
2022/04/15 06:40:49;;;;;;;9.45;6.25;;;;;;;26.87;24.71;100000.75;5108913;28;20221;-53
2022/04/15 06:43:16;;;;;;;17.63;8.63;;;;;;;26.22;25.07;99999.34;5109336;28;20216;-53
2022/04/15 06:45:43;;;;;;;9.18;7.28;;;;;;;25.72;25.05;99993.03;5112790;28;20194;-52
2022/04/15 06:48:10;;;;;;;8.75;7.50;;;;;;;25.54;25.44;99992.69;5113185;28;20222;-52
2022/04/15 06:50:39;;;;;;;10.25;6.68;;;;;;;26.26;24.64;99992.78;5113451;28;20706;-51
2022/04/15 06:53:06;;;;;;;11.25;6.18;;;;;;;26.15;24.41;99995.53;5113840;28;20222;-52
2022/04/15 06:55:33;;;;;;;8.32;5.65;;;;;;;25.85;24.69;99986.50;5114011;28;20195;-52
2022/04/15 06:58:00;;;;;;;6.70;6.10;;;;;;;25.20;25.05;99987.50;5113711;28;20220;-52
2022/04/15 07:00:27;;;;;;;12.15;6.82;;;;;;;24.52;26.12;99982.41;5113469;28;20195;-52
2022/04/15 07:02:54;;;;;;;9.95;5.95;;;;;;;25.09;25.80;99984.88;5113747;28;20277;-52
2022/04/15 07:05:21;;;;;;;9.20;5.53;;;;;;;24.58;26.85;99980.13;5113419;28;20198;-52
2022/04/15 07:07:50;;;;;;;10.38;6.40;;;;;;;24.37;27.27;99987.13;5113837;28;20758;-51
2022/04/15 07:10:17;;;;;;;6.43;5.80;;;;;;;23.28;28.90;99983.03;5113449;28;20209;-53
2022/04/15 07:12:43;;;;;;;6.57;5.97;;;;;;;22.76;29.75;99981.56;5113194;28;20318;-53
2022/04/15 07:15:10;;;;;;;7.63;6.30;;;;;;;22.40;30.30;99992.91;5113223;28;20205;-52
2022/04/15 07:17:37;;;;;;;6.55;5.93;;;;;;;22.48;30.69;99980.91;5113710;28;20763;-53
2022/04/15 07:20:06;;;;;;;7.18;6.47;;;;;;;23.13;30.02;99982.38;5113219;28;20289;-53
2022/04/15 07:22:33;;;;;;;12.48;7.22;;;;;;;24.15;29.12;99979.13;5113359;28;20226;-53
2022/04/15 07:25:01;;;;;;;11.10;6.65;;;;;;;25.12;28.08;99978.47;5113210;28;20226;-53
2022/04/15 07:27:28;;;;;;;11.40;6.75;;;;;;;25.31;27.50;99976.84;5113031;28;20245;-52
2022/04/15 07:29:55;;;;;;;6.60;5.90;;;;;;;25.98;27.26;99981.00;5113126;28;20194;-52
2022/04/15 07:32:23;;;;;;;7.25;6.28;;;;;;;26.66;26.27;99977.69;5112917;28;20289;-51
2022/04/15 07:34:51;;;;;;;11.27;5.72;;;;;;;27.31;25.55;99980.81;5113165;28;20221;-53
2022/04/15 07:37:18;;;;;;;9.07;5.57;;;;;;;27.70;24.72;99971.00;5113258;28;20206;-52
2022/04/15 07:39:45;;;;;;;8.15;6.57;;;;;;;27.82;24.86;99968.03;5112969;28;20205;-52
2022/04/15 07:42:14;;;;;;;12.85;9.00;;;;;;;28.32;24.55;99969.63;5113217;28;20290;-51
2022/04/15 07:44:41;;;;;;;8.18;6.78;;;;;;;28.25;24.43;99972.03;5113959;28;20556;-52
2022/04/15 07:47:09;;;;;;;9.05;5.70;;;;;;;28.48;23.91;99970.66;5113676;28;20202;-52
2022/04/15 07:49:37;;;;;;;6.50;6.00;;;;;;;28.66;23.87;99957.38;5113715;28;20667;-52
2022/04/15 07:52:06;;;;;;;7.32;5.70;;;;;;;28.74;23.52;99973.50;5113058;28;20191;-52
2022/04/15 07:54:33;;;;;;;6.22;5.43;;;;;;;29.27;22.76;99972.75;5113330;28;20265;-52
2022/04/15 07:57:00;;;;;;;6.53;6.03;;;;;;;30.39;22.69;99965.75;5112174;28;20198;-54
2022/04/15 07:59:29;;;;;;;10.43;6.80;;;;;;;31.08;21.95;99959.31;5112663;28;20190;-53
2022/04/15 08:01:56;;;;;;;9.73;6.38;;;;;;;31.68;21.01;99951.88;5112885;28;20200;-52
2022/04/15 08:04:23;;;;;;;7.03;6.28;;;;;;;32.41;20.59;99948.19;5112638;28;20230;-52
2022/04/15 08:06:52;;;;;;;7.32;5.78;;;;;;;32.63;19.77;99946.59;5112604;28;20199;-53
2022/04/15 08:09:19;;;;;;;6.25;5.65;;;;;;;32.88;20.42;99941.94;5112595;28;20285;-53
2022/04/15 08:11:46;;;;;;;9.95;5.70;;;;;;;33.46;19.53;99949.47;5112540;28;20190;-51
2022/04/15 08:14:13;;;;;;;6.07;5.43;;;;;;;33.46;19.31;99946.78;5112311;28;20303;-53
2022/04/15 08:16:42;;;;;;;10.20;5.22;;;;;;;33.34;19.03;99942.84;5112409;28;20616;-51
2022/04/15 08:19:09;;;;;;;5.20;4.60;;;;;;;32.65;19.00;99928.44;5112264;28;20209;-53
2022/04/15 08:21:36;;;;;;;5.57;4.63;;;;;;;32.84;19.45;99932.56;5112334;28;20199;-52
2022/04/15 08:24:03;;;;;;;5.68;5.10;;;;;;;33.26;18.85;99933.00;5112391;28;20282;-52
2022/04/15 08:26:30;;;;;;;7.05;5.13;;;;;;;34.14;18.10;99930.47;5111974;28;20321;-52
2022/04/15 08:28:57;;;;;;;5.28;4.78;;;;;;;34.54;17.37;99937.25;5112469;28;20202;-52
2022/04/15 08:31:24;;;;;;;7.00;6.40;;;;;;;33.40;18.05;99931.38;5112044;28;20198;-52
2022/04/15 08:33:52;;;;;;;5.40;4.82;;;;;;;32.62;18.32;99926.13;5112109;28;20245;-52
2022/04/15 08:36:19;;;;;;;7.82;7.13;;;;;;;32.41;19.21;99926.69;5112246;28;20201;-52
2022/04/15 08:38:46;;;;;;;5.28;4.80;;;;;;;32.22;18.86;99919.91;5111970;28;20199;-52
2022/04/15 08:41:14;;;;;;;4.93;4.53;;;;;;;32.06;19.61;99914.53;5111782;28;20191;-50
2022/04/15 08:43:43;;;;;;;6.22;4.82;;;;;;;33.08;18.41;99917.09;5111970;28;20195;-51
2022/04/15 08:46:12;;;;;;;5.75;4.32;;;;;;;33.11;18.71;99908.69;5111799;28;20289;-53
2022/04/15 08:48:40;;;;;;;5.50;5.00;;;;;;;33.10;18.49;99904.31;5111591;28;20199;-52
2022/04/15 08:51:09;;;;;;;7.90;4.25;;;;;;;32.61;18.79;99897.56;5111893;28;20649;-52
2022/04/15 08:53:37;;;;;;;5.63;4.60;;;;;;;31.84;18.97;99891.09;5111776;28;20603;-52
2022/04/15 08:56:06;;;;;;;5.85;4.38;;;;;;;31.52;19.39;99895.47;5111586;28;20190;-52
2022/04/15 08:58:33;;;;;;;4.82;4.47;;;;;;;31.91;19.28;99887.56;5111530;28;20202;-53
2022/04/15 09:01:00;;;;;;;4.80;4.18;;;;;;;32.33;18.68;99887.28;5111395;28;20197;-51
2022/04/15 09:03:28;;;;;;;9.50;4.22;;;;;;;32.75;18.20;99883.38;5111410;28;20190;-51
2022/04/15 09:05:55;;;;;;;6.55;4.03;;;;;;;32.88;18.57;99886.31;5111635;28;20194;-52
2022/04/15 09:08:25;;;;;;;4.57;4.18;;;;;;;32.62;18.23;99881.22;5111201;28;20198;-51
2022/04/15 09:10:59;;;;;;;5.05;4.13;;;;;;;32.21;18.94;99869.03;5111358;28;20248;-52
2022/04/15 09:13:31;;;;;;;6.07;4.35;;;;;;;32.32;18.37;99866.78;5107005;28;20264;-52
2022/04/15 09:16:01;;;;;;;8.85;4.97;;;;;;;33.13;18.45;99863.59;5099762;28;20207;-52
2022/04/15 09:18:30;;;;;;;9.30;4.15;;;;;;;34.00;17.10;99861.25;5090810;28;20192;-52
2022/04/15 09:21:18;;;;;;;4.20;3.90;;;;;;;34.53;16.42;99861.97;5090854;28;20198;-51
2022/04/15 09:23:49;;;;;;;5.05;3.88;;;;;;;34.44;16.73;99857.69;5090727;28;20195;-52
2022/04/15 09:26:16;;;;;;;4.45;4.15;;;;;;;34.86;16.85;99862.34;5090436;28;20237;-52
2022/04/15 09:28:43;;;;;;;10.90;5.03;;;;;;;35.30;16.26;99860.31;5090653;28;20311;-52
2022/04/15 09:31:14;;;;;;;16.42;7.88;;;;;;;35.26;16.60;99850.91;5090611;28;20256;-53
2022/04/15 09:33:51;;;;;;;8.25;5.18;;;;;;;34.92;16.93;99856.19;5090599;28;20665;-51
2022/04/15 09:36:29;;;;;;;7.97;4.95;;;;;;;35.00;16.27;99845.25;5090371;28;20198;-51
2022/04/15 09:39:00;;;;;;;7.40;4.30;;;;;;;34.92;16.36;99843.53;5090626;28;20194;-52
2022/04/15 09:41:29;;;;;;;6.82;4.32;;;;;;;34.66;16.07;99845.91;5090458;28;20195;-52
2022/04/15 09:43:58;;;;;;;6.30;4.13;;;;;;;34.95;16.50;99832.34;5090992;28;20203;-52
2022/04/15 09:46:26;;;;;;;10.20;4.93;;;;;;;34.63;16.66;99826.63;5090211;28;20195;-52
2022/04/15 09:49:02;;;;;;;9.60;5.10;;;;;;;34.34;16.61;99817.56;5090150;28;20646;-51
2022/04/15 09:51:31;;;;;;;7.57;5.28;;;;;;;34.97;16.59;99815.97;5090162;28;20195;-53
2022/04/15 09:54:01;;;;;;;7.30;5.20;;;;;;;33.63;17.58;99821.78;5090223;28;20314;-53
2022/04/15 09:56:32;;;;;;;10.63;5.35;;;;;;;33.34;17.96;99814.50;5090542;28;20239;-52
2022/04/15 09:59:04;;;;;;;5.00;4.70;;;;;;;32.62;19.08;99810.53;5090595;28;20206;-53
2022/04/15 10:01:32;;;;;;;5.47;4.95;;;;;;;29.91;22.05;99805.72;5089898;28;20626;-52
2022/04/15 10:04:01;;;;;;;8.02;5.15;;;;;;;28.66;21.63;99807.78;5090148;28;20199;-51
2022/04/15 10:06:29;;;;;;;8.63;5.03;;;;;;;27.51;23.25;99795.84;5089997;28;20242;-54
2022/04/15 10:08:59;;;;;;;13.35;5.30;;;;;;;26.60;24.07;99791.03;5090278;28;20691;-52
2022/04/15 10:11:27;;;;;;;9.27;5.20;;;;;;;25.62;25.59;99785.59;5089913;28;20195;-51
2022/04/15 10:13:56;;;;;;;5.40;4.90;;;;;;;25.06;26.12;99779.75;5089848;28;20229;-50
2022/04/15 10:16:23;;;;;;;7.88;4.50;;;;;;;24.56;25.75;99775.03;5089846;28;20203;-51
2022/04/15 10:18:52;;;;;;;5.28;4.82;;;;;;;24.24;25.89;99772.38;5091368;28;20252;-52
2022/04/15 10:21:19;;;;;;;5.40;4.18;;;;;;;23.63;28.03;99759.63;5096798;28;20834;-52
2022/04/15 10:23:47;;;;;;;11.05;4.88;;;;;;;23.32;27.39;99756.72;5096745;28;20187;-51
2022/04/15 10:26:17;;;;;;;8.43;4.45;;;;;;;23.20;27.97;99748.88;5096495;28;20233;-52
2022/04/15 10:28:48;;;;;;;8.23;4.28;;;;;;;23.00;29.83;99750.41;5096908;28;20809;-52
2022/04/15 10:31:16;;;;;;;5.00;4.07;;;;;;;23.04;29.11;99749.19;5096736;28;20702;-52
2022/04/15 10:33:44;;;;;;;8.77;3.85;;;;;;;22.93;28.86;99739.41;5096418;28;20230;-51
2022/04/15 10:36:14;;;;;;;3.65;3.38;;;;;;;22.55;28.50;99713.19;5096662;28;20727;-51
2022/04/15 10:39:14;;;;;;;3.90;3.50;;;;;;;22.71;28.49;99728.75;5096424;28;20203;-53
2022/04/15 10:42:05;;;;;;;5.10;3.60;;;;;;;22.49;28.61;99724.22;5096881;28;20199;-52
2022/04/15 10:44:39;;;;;;;5.72;3.25;;;;;;;22.41;28.99;99722.16;5096398;28;20274;-51
2022/04/15 10:47:27;;;;;;;3.95;3.58;;;;;;;22.38;30.02;99726.81;5096535;28;20684;-52
2022/04/15 10:49:56;;;;;;;4.22;3.65;;;;;;;22.41;30.11;99724.78;5096531;28;20203;-51
2022/04/15 10:52:25;;;;;;;5.43;3.47;;;;;;;22.35;29.73;99722.59;5096403;28;20194;-51
2022/04/15 10:54:55;;;;;;;5.07;3.83;;;;;;;22.28;29.94;99709.94;5096354;28;20222;-52
2022/04/15 10:57:23;;;;;;;3.42;3.17;;;;;;;22.24;29.37;99704.03;5096221;28;20195;-52
2022/04/15 11:02:44;;;;;;;4.60;4.07;;;;;;;22.27;29.42;99693.22;5096678;28;20202;-53
2022/04/15 11:05:13;;;;;;;7.30;4.18;;;;;;;22.17;29.74;99694.88;5096160;28;20199;-52
2022/04/15 11:07:51;;;;;;;7.22;4.57;;;;;;;22.19;29.74;99679.75;5096263;28;20588;-52
2022/04/15 11:10:40;;;;;;;7.60;3.97;;;;;;;22.24;29.62;99674.94;5095833;28;20210;-52
2022/04/15 11:13:08;;;;;;;5.40;4.22;;;;;;;22.30;29.94;99677.16;5096169;28;20671;-50
2022/04/15 11:15:57;;;;;;;5.70;4.15;;;;;;;22.28;29.86;99665.00;5096224;28;20219;-52
2022/04/15 11:18:24;;;;;;;4.30;3.78;;;;;;;22.26;30.00;99667.75;5095772;28;20581;-52
2022/04/15 11:20:52;;;;;;;3.97;3.60;;;;;;;22.22;30.16;99668.94;5096290;28;20750;-51
2022/04/15 11:23:19;;;;;;;5.95;3.97;;;;;;;22.20;29.47;99664.72;5096243;28;20231;-52
2022/04/15 11:25:46;;;;;;;4.57;4.15;;;;;;;22.31;29.63;99670.91;5095946;28;20290;-52
2022/04/15 11:28:13;;;;;;;5.35;4.85;;;;;;;22.38;30.13;99652.75;5095951;28;20198;-53
2022/04/15 11:30:40;;;;;;;5.70;5.28;;;;;;;22.50;29.56;99662.41;5094958;28;20196;-52
2022/04/15 11:33:09;;;;;;;8.07;5.57;;;;;;;22.51;29.55;99655.31;5092982;28;20689;-52
2022/04/15 11:35:37;;;;;;;4.70;4.25;;;;;;;22.61;29.50;99654.50;5092841;28;20223;-52
2022/04/15 11:38:06;;;;;;;5.35;4.32;;;;;;;22.63;29.19;99654.41;5092862;28;20191;-51